Time;durP1;ratioP1;P1;durP2;ratioP2;P2;SDS_P1;SDS_P2;PMS_P1;PMS_P2;Temp;Humidity;BMP_temperature;BMP_pressure;BME280_temperature;BME280_humidity;BME280_pressure;Samples;Min_cycle;Max_cycle;Signal;HPM_P1;HPM_P2
2022/04/11 00:01:31;;;;;;;1999.90;999.90;;;;;;;-151.59;100.00;55400.94;5015700;28;20748;-73
2022/04/11 00:03:59;;;;;;;1999.90;999.90;;;;;;;-151.59;100.00;55400.94;5010142;28;20230;-74
2022/04/11 00:06:27;;;;;;;1999.90;999.90;;;;;;;-151.59;100.00;55400.94;4991249;28;20280;-74
2022/04/11 00:08:55;;;;;;;1999.90;999.90;;;;;;;-151.59;100.00;55400.94;5004335;28;20229;-73
2022/04/11 00:11:23;;;;;;;1999.90;999.90;;;;;;;-151.59;100.00;55400.94;4988346;28;20234;-71
2022/04/11 00:13:50;;;;;;;1999.90;999.90;;;;;;;-151.59;100.00;55400.94;5002752;28;20729;-73
2022/04/11 00:16:18;;;;;;;1999.90;999.90;;;;;;;-151.59;100.00;55400.94;5005118;28;20244;-73
2022/04/11 00:18:47;;;;;;;1999.90;999.90;;;;;;;-151.59;100.00;55400.94;5008189;28;20237;-73
2022/04/11 00:21:15;;;;;;;1999.90;999.90;;;;;;;-151.59;100.00;55400.94;5001871;28;20658;-74
2022/04/11 00:23:42;;;;;;;1999.90;999.90;;;;;;;-151.59;100.00;55400.94;5008330;28;20240;-74
2022/04/11 00:26:10;;;;;;;1999.90;999.90;;;;;;;-151.59;100.00;55400.94;5006416;28;20317;-74
2022/04/11 00:28:38;;;;;;;1999.90;999.90;;;;;;;-151.59;100.00;55400.94;5013845;28;20237;-73
2022/04/11 00:31:05;;;;;;;1999.90;999.90;;;;;;;-151.59;100.00;55400.94;5006227;28;20320;-73
2022/04/11 00:33:33;;;;;;;1999.90;999.90;;;;;;;-151.59;100.00;55400.94;4997891;28;20234;-73
2022/04/11 00:36:02;;;;;;;1999.90;999.90;;;;;;;-151.59;100.00;55400.94;5000937;28;20770;-72
2022/04/11 00:38:30;;;;;;;1999.90;999.90;;;;;;;-151.59;100.00;55400.94;5011713;28;20881;-73
2022/04/11 00:40:58;;;;;;;1999.90;999.90;;;;;;;-151.59;100.00;55400.94;5007979;28;20234;-72
2022/04/11 00:43:31;;;;;;;1999.90;999.90;;;;;;;-151.59;100.00;55400.94;5003616;28;20241;-72
2022/04/11 00:45:59;;;;;;;1999.90;999.90;;;;;;;-151.59;100.00;55400.94;5008185;28;20234;-72
2022/04/11 00:48:27;;;;;;;1999.90;999.90;;;;;;;-151.59;100.00;55400.94;5007566;28;20248;-73
2022/04/11 00:50:57;;;;;;;1999.90;999.90;;;;;;;-151.59;100.00;55400.94;5007143;28;20332;-73
2022/04/11 00:53:30;;;;;;;1999.90;999.90;;;;;;;-151.59;100.00;55400.94;5006123;28;20750;-73
2022/04/11 00:55:58;;;;;;;1999.90;999.90;;;;;;;-151.59;100.00;55400.94;4999280;28;20316;-72
2022/04/11 00:58:26;;;;;;;1999.90;999.90;;;;;;;-151.59;100.00;55400.94;4983452;28;20232;-73
2022/04/11 01:00:54;;;;;;;1999.90;999.90;;;;;;;-151.59;100.00;55400.94;5018107;28;20689;-72
2022/04/11 01:03:22;;;;;;;1999.90;999.90;;;;;;;-151.59;100.00;55400.94;5007885;28;20233;-73
2022/04/11 01:05:50;;;;;;;1999.90;999.90;;;;;;;-151.59;100.00;55400.94;5004719;28;20538;-73
2022/04/11 01:08:18;;;;;;;1999.90;999.90;;;;;;;-151.59;100.00;55400.94;5009971;28;20394;-72
2022/04/11 01:10:47;;;;;;;1999.90;999.90;;;;;;;-151.59;100.00;55400.94;4986755;28;20230;-73
2022/04/11 01:13:14;;;;;;;1999.90;999.90;;;;;;;-151.59;100.00;55400.94;4987590;28;20749;-73
2022/04/11 01:15:53;;;;;;;1999.90;999.90;;;;;;;-151.59;100.00;55400.94;5004859;28;20302;-73
2022/04/11 01:18:21;;;;;;;1999.90;999.90;;;;;;;-151.59;100.00;55400.94;5021120;28;20289;-73
2022/04/11 01:20:48;;;;;;;1999.90;999.90;;;;;;;-151.59;100.00;55400.94;5004387;28;20237;-75
2022/04/11 01:23:17;;;;;;;1999.90;999.90;;;;;;;-151.59;100.00;55400.94;5002581;28;22306;-73
2022/04/11 01:25:50;;;;;;;1999.90;999.90;;;;;;;-151.59;100.00;55400.94;4987497;28;21005;-74
2022/04/11 01:28:18;;;;;;;1999.90;999.90;;;;;;;-151.59;100.00;55400.94;4984703;28;20235;-74
2022/04/11 01:30:46;;;;;;;1999.90;999.90;;;;;;;-151.59;100.00;55400.94;5004668;28;20225;-73
2022/04/11 01:33:16;;;;;;;1999.90;999.90;;;;;;;-151.59;100.00;55400.94;5003675;28;21025;-74
2022/04/11 01:35:44;;;;;;;1999.90;999.90;;;;;;;-151.59;100.00;55400.94;5004633;28;21027;-72
2022/04/11 01:38:12;;;;;;;1999.90;999.90;;;;;;;-151.59;100.00;55400.94;4999714;28;20324;-73
2022/04/11 01:40:48;;;;;;;1999.90;999.90;;;;;;;-151.59;100.00;55400.94;5003142;28;20290;-73
2022/04/11 01:43:17;;;;;;;1999.90;999.90;;;;;;;-151.59;100.00;55400.94;5001124;28;20304;-73
2022/04/11 01:45:44;;;;;;;1999.90;999.90;;;;;;;-151.59;100.00;55400.94;4999594;28;20704;-73
2022/04/11 01:48:13;;;;;;;1999.90;999.90;;;;;;;-151.59;100.00;55400.94;5004385;28;21003;-74
2022/04/11 01:50:41;;;;;;;1999.90;999.90;;;;;;;-151.59;100.00;55400.94;5002142;28;20230;-74
2022/04/11 01:53:10;;;;;;;1999.90;999.90;;;;;;;-151.59;100.00;55400.94;5007097;28;20230;-73
2022/04/11 01:55:40;;;;;;;1999.90;999.90;;;;;;;-151.59;100.00;55400.94;4986152;28;20225;-74
2022/04/11 01:58:11;;;;;;;1999.90;999.90;;;;;;;-151.59;100.00;55400.94;4988136;28;20293;-74
2022/04/11 02:00:41;;;;;;;1999.90;999.90;;;;;;;-151.59;100.00;55400.94;4983165;28;20234;-76
2022/04/11 02:03:10;;;;;;;1999.90;999.90;;;;;;;-151.59;100.00;55400.94;4981221;28;20254;-73
2022/04/11 02:05:38;;;;;;;1999.90;999.90;;;;;;;-151.59;100.00;55400.94;5001541;28;20259;-73
2022/04/11 02:08:07;;;;;;;1999.90;999.90;;;;;;;-151.59;100.00;55400.94;5017137;28;20865;-73
2022/04/11 02:10:36;;;;;;;1999.90;999.90;;;;;;;-151.59;100.00;55400.94;4992250;28;20260;-74
2022/04/11 02:13:05;;;;;;;1999.90;999.90;;;;;;;-151.59;100.00;55400.94;4997318;28;20233;-73
2022/04/11 02:15:34;;;;;;;1999.90;999.90;;;;;;;-151.59;100.00;55400.94;5001714;28;20233;-75
2022/04/11 02:18:03;;;;;;;1999.90;999.90;;;;;;;-151.59;100.00;55400.94;5002960;28;21193;-73
2022/04/11 02:20:31;;;;;;;1999.90;999.90;;;;;;;-151.59;100.00;55400.94;5005367;28;20225;-73
2022/04/11 02:23:00;;;;;;;1999.90;999.90;;;;;;;-151.59;100.00;55400.94;5001043;28;20234;-74
2022/04/11 02:25:29;;;;;;;1999.90;999.90;;;;;;;-151.59;100.00;55400.94;5003182;28;20316;-74
2022/04/11 02:27:58;;;;;;;1999.90;999.90;;;;;;;-151.59;100.00;55400.94;4999831;28;20226;-74
2022/04/11 02:30:27;;;;;;;1999.90;999.90;;;;;;;-151.59;100.00;55400.94;5006608;28;20237;-75
2022/04/11 02:32:56;;;;;;;1999.90;999.90;;;;;;;-151.59;100.00;55400.94;4998766;28;20229;-74
2022/04/11 02:35:25;;;;;;;1999.90;999.90;;;;;;;-151.59;100.00;55400.94;4994061;28;20724;-73
2022/04/11 02:37:53;;;;;;;1999.90;999.90;;;;;;;-151.59;100.00;55400.94;5000128;28;20238;-73
2022/04/11 02:40:22;;;;;;;1999.90;999.90;;;;;;;-151.59;100.00;55400.94;5002780;28;20230;-73
2022/04/11 02:43:11;;;;;;;1999.90;999.90;;;;;;;-151.59;100.00;55400.94;4984867;28;20936;-74
2022/04/11 02:45:45;;;;;;;1999.90;999.90;;;;;;;-151.59;100.00;55400.94;5003283;28;20225;-74
2022/04/11 02:48:17;;;;;;;1999.90;999.90;;;;;;;-151.59;100.00;55400.94;4993855;28;20241;-74
2022/04/11 02:50:53;;;;;;;1999.90;999.90;;;;;;;-151.59;100.00;55400.94;5003377;28;20288;-73
2022/04/11 02:53:27;;;;;;;1999.90;999.90;;;;;;;-151.59;100.00;55400.94;5015905;28;20357;-73
2022/04/11 02:55:54;;;;;;;1999.90;999.90;;;;;;;-151.59;100.00;55400.94;4998572;28;20246;-73
2022/04/11 02:58:22;;;;;;;1999.90;999.90;;;;;;;-151.59;100.00;55400.94;5008143;28;20737;-74
2022/04/11 03:00:50;;;;;;;1999.90;999.90;;;;;;;-151.59;100.00;55400.94;5002987;28;20226;-74
2022/04/11 03:03:21;;;;;;;1999.90;999.90;;;;;;;-151.59;100.00;55400.94;4986297;28;20268;-74
2022/04/11 03:05:50;;;;;;;1999.90;999.90;;;;;;;-151.59;100.00;55400.94;4996458;28;20310;-73
2022/04/11 03:08:18;;;;;;;1999.90;999.90;;;;;;;-151.59;100.00;55400.94;4990007;28;20225;-74
2022/04/11 03:10:46;;;;;;;1999.90;999.90;;;;;;;-151.59;100.00;55400.94;4982640;28;20235;-74
2022/04/11 03:13:14;;;;;;;1999.90;999.90;;;;;;;-151.59;100.00;55400.94;5006567;28;20317;-73
2022/04/11 03:15:42;;;;;;;1999.90;999.90;;;;;;;-151.59;100.00;55400.94;4985540;28;20234;-73
2022/04/11 03:18:10;;;;;;;1999.90;999.90;;;;;;;-151.59;100.00;55400.94;4996729;28;20232;-74
2022/04/11 03:20:40;;;;;;;1999.90;999.90;;;;;;;-151.59;100.00;55400.94;4989935;28;20776;-73
2022/04/11 03:23:09;;;;;;;1999.90;999.90;;;;;;;-151.59;100.00;55400.94;5000164;28;20281;-73
2022/04/11 03:25:39;;;;;;;1999.90;999.90;;;;;;;-151.59;100.00;55400.94;4982967;28;20233;-74
2022/04/11 03:28:12;;;;;;;1999.90;999.90;;;;;;;-151.59;100.00;55400.94;4996444;28;20229;-72
2022/04/11 03:30:40;;;;;;;1999.90;999.90;;;;;;;-151.59;100.00;55400.94;5006054;28;20236;-73
2022/04/11 03:33:08;;;;;;;1999.90;999.90;;;;;;;-151.59;100.00;55400.94;5001773;28;20238;-72
2022/04/11 03:35:37;;;;;;;1999.90;999.90;;;;;;;-151.59;100.00;55400.94;5007011;28;20233;-73
2022/04/11 03:38:06;;;;;;;1999.90;999.90;;;;;;;-151.59;100.00;55400.94;5001724;28;20494;-73
2022/04/11 03:40:34;;;;;;;1999.90;999.90;;;;;;;-151.59;100.00;55400.94;5002193;28;20326;-72
2022/04/11 03:43:06;;;;;;;1999.90;999.90;;;;;;;-151.59;100.00;55400.94;5003587;28;20236;-72
2022/04/11 03:45:34;;;;;;;1999.90;999.90;;;;;;;-151.59;100.00;55400.94;5008036;28;20272;-73
2022/04/11 03:48:02;;;;;;;1999.90;999.90;;;;;;;-151.59;100.00;55400.94;4989267;28;20230;-73
2022/04/11 03:50:33;;;;;;;1999.90;999.90;;;;;;;-151.59;100.00;55400.94;4988439;28;20637;-74
2022/04/11 03:53:01;;;;;;;1999.90;999.90;;;;;;;-151.59;100.00;55400.94;4994828;28;20230;-74
2022/04/11 03:55:31;;;;;;;1999.90;999.90;;;;;;;-151.59;100.00;55400.94;4990036;28;20260;-73
2022/04/11 03:57:59;;;;;;;1999.90;999.90;;;;;;;-151.59;100.00;55400.94;5008191;28;20245;-73
2022/04/11 04:00:28;;;;;;;1999.90;999.90;;;;;;;-151.59;100.00;55400.94;5005614;28;20228;-74
2022/04/11 04:03:11;;;;;;;1999.90;999.90;;;;;;;-151.59;100.00;55400.94;5004917;28;20253;-73
2022/04/11 04:05:43;;;;;;;1999.90;999.90;;;;;;;-151.59;100.00;55400.94;4986138;28;21154;-73
2022/04/11 04:08:14;;;;;;;1999.90;999.90;;;;;;;-151.59;100.00;55400.94;5006385;28;20318;-74
2022/04/11 04:10:51;;;;;;;1999.90;999.90;;;;;;;-151.59;100.00;55400.94;4994542;28;20331;-74
2022/04/11 04:13:20;;;;;;;1999.90;999.90;;;;;;;-151.59;100.00;55400.94;5021356;28;20230;-74
2022/04/11 04:15:48;;;;;;;1999.90;999.90;;;;;;;-151.59;100.00;55400.94;5006372;28;20230;-73
2022/04/11 04:18:17;;;;;;;1999.90;999.90;;;;;;;-151.59;100.00;55400.94;4987972;28;20495;-73
2022/04/11 04:20:44;;;;;;;1999.90;999.90;;;;;;;-151.59;100.00;55400.94;4995555;28;20312;-73
2022/04/11 04:23:13;;;;;;;1999.90;999.90;;;;;;;-151.59;100.00;55400.94;4992358;28;20273;-73
2022/04/11 04:25:40;;;;;;;1999.90;999.90;;;;;;;-151.59;100.00;55400.94;4992876;28;20282;-75
2022/04/11 04:28:13;;;;;;;1999.90;999.90;;;;;;;-151.59;100.00;55400.94;5003169;28;20230;-73
2022/04/11 04:30:41;;;;;;;1999.90;999.90;;;;;;;-151.59;100.00;55400.94;5011678;28;20778;-73
2022/04/11 04:33:09;;;;;;;1999.90;999.90;;;;;;;-151.59;100.00;55400.94;5014859;28;20257;-73
2022/04/11 04:35:36;;;;;;;1999.90;999.90;;;;;;;-151.59;100.00;55400.94;5006095;28;20287;-73
2022/04/11 04:38:09;;;;;;;1999.90;999.90;;;;;;;-151.59;100.00;55400.94;4988851;28;20230;-73
2022/04/11 04:40:46;;;;;;;1999.90;999.90;;;;;;;-151.59;100.00;55400.94;4989182;28;20226;-73
2022/04/11 04:43:18;;;;;;;1999.90;999.90;;;;;;;-151.59;100.00;55400.94;5002102;28;20237;-74
2022/04/11 04:45:47;;;;;;;1999.90;999.90;;;;;;;-151.59;100.00;55400.94;4984656;28;20278;-74
2022/04/11 04:48:26;;;;;;;1999.90;999.90;;;;;;;-151.59;100.00;55400.94;5009193;28;20283;-73
2022/04/11 04:50:54;;;;;;;1999.90;999.90;;;;;;;-151.59;100.00;55400.94;5005370;28;20258;-73
2022/04/11 04:53:23;;;;;;;1999.90;999.90;;;;;;;-151.59;100.00;55400.94;5008580;28;20702;-73
2022/04/11 04:55:57;;;;;;;1999.90;999.90;;;;;;;-151.59;100.00;55400.94;5003439;28;20229;-74
2022/04/11 04:58:27;;;;;;;1999.90;999.90;;;;;;;-151.59;100.00;55400.94;4991700;28;20275;-75
2022/04/11 05:00:55;;;;;;;1999.90;999.90;;;;;;;-151.59;100.00;55400.94;5002397;28;20262;-72
2022/04/11 05:03:25;;;;;;;1999.90;999.90;;;;;;;-151.59;100.00;55400.94;5011137;28;20258;-73
2022/04/11 05:05:54;;;;;;;1999.90;999.90;;;;;;;-151.59;100.00;55400.94;5001889;28;20238;-73
2022/04/11 05:08:23;;;;;;;1999.90;999.90;;;;;;;-151.59;100.00;55400.94;4985051;28;20725;-73
2022/04/11 05:10:51;;;;;;;1999.90;999.90;;;;;;;-151.59;100.00;55400.94;5016271;28;20304;-73
2022/04/11 05:13:19;;;;;;;1999.90;999.90;;;;;;;-151.59;100.00;55400.94;5004426;28;20234;-73
2022/04/11 05:15:49;;;;;;;1999.90;999.90;;;;;;;-151.59;100.00;55400.94;4995828;28;20620;-73
2022/04/11 05:18:22;;;;;;;1999.90;999.90;;;;;;;-151.59;100.00;55400.94;5002023;28;20779;-71
2022/04/11 05:20:51;;;;;;;1999.90;999.90;;;;;;;-151.59;100.00;55400.94;4982907;28;20240;-71
2022/04/11 05:23:21;;;;;;;1999.90;999.90;;;;;;;-151.59;100.00;55400.94;4978050;28;20752;-71
2022/04/11 05:25:49;;;;;;;1999.90;999.90;;;;;;;-151.59;100.00;55400.94;4983409;28;20237;-71
2022/04/11 05:28:17;;;;;;;1999.90;999.90;;;;;;;-151.59;100.00;55400.94;4981152;28;20285;-71
2022/04/11 05:30:55;;;;;;;1999.90;999.90;;;;;;;-151.59;100.00;55400.94;4976683;28;20818;-72
2022/04/11 05:33:23;;;;;;;1999.90;999.90;;;;;;;-151.59;100.00;55400.94;4991266;28;20229;-71
2022/04/11 05:35:51;;;;;;;1999.90;999.90;;;;;;;-151.59;100.00;55400.94;4987198;28;20230;-71
2022/04/11 05:38:19;;;;;;;1999.90;999.90;;;;;;;-151.59;100.00;55400.94;5002530;28;20238;-71
2022/04/11 05:40:50;;;;;;;1999.90;999.90;;;;;;;-151.59;100.00;55400.94;4986941;28;20234;-71
2022/04/11 05:43:30;;;;;;;1999.90;999.90;;;;;;;-151.59;100.00;55400.94;4982015;28;20825;-71
2022/04/11 05:46:01;;;;;;;1999.90;999.90;;;;;;;-151.59;100.00;55400.94;4997021;28;20230;-71
2022/04/11 05:48:32;;;;;;;1999.90;999.90;;;;;;;-151.59;100.00;55400.94;5003569;28;20229;-71
2022/04/11 05:51:00;;;;;;;1999.90;999.90;;;;;;;-151.59;100.00;55400.94;4994197;28;20233;-72
2022/04/11 05:53:28;;;;;;;1999.90;999.90;;;;;;;-151.59;100.00;55400.94;5013379;28;20230;-71
2022/04/11 05:55:56;;;;;;;1999.90;999.90;;;;;;;-151.59;100.00;55400.94;4997240;28;20288;-70
2022/04/11 05:58:25;;;;;;;1999.90;999.90;;;;;;;-151.59;100.00;55400.94;5002071;28;20725;-71
2022/04/11 06:00:56;;;;;;;1999.90;999.90;;;;;;;-151.59;100.00;55400.94;4976132;28;20280;-71
2022/04/11 06:03:28;;;;;;;1999.90;999.90;;;;;;;-151.59;100.00;55400.94;4972197;28;20669;-72
2022/04/11 06:05:55;;;;;;;1999.90;999.90;;;;;;;-151.59;100.00;55400.94;4981469;28;20312;-70
2022/04/11 06:08:24;;;;;;;1999.90;999.90;;;;;;;-151.59;100.00;55400.94;4978522;28;20735;-72
2022/04/11 06:10:52;;;;;;;1999.90;999.90;;;;;;;-151.59;100.00;55400.94;4976509;28;22041;-72
2022/04/11 06:13:22;;;;;;;1999.90;999.90;;;;;;;-151.59;100.00;55400.94;4981542;28;20234;-71
2022/04/11 06:15:54;;;;;;;1999.90;999.90;;;;;;;-151.59;100.00;55400.94;5006194;28;20261;-73
2022/04/11 06:18:22;;;;;;;1999.90;999.90;;;;;;;-151.59;100.00;55400.94;5006132;28;20297;-73
2022/04/11 06:20:51;;;;;;;1999.90;999.90;;;;;;;-151.59;100.00;55400.94;5003777;28;20226;-73
2022/04/11 06:23:19;;;;;;;1999.90;999.90;;;;;;;-151.59;100.00;55400.94;4981226;28;20980;-73
2022/04/11 06:25:48;;;;;;;1999.90;999.90;;;;;;;-151.59;100.00;55400.94;4983591;28;20236;-73
2022/04/11 06:28:16;;;;;;;1999.90;999.90;;;;;;;-151.59;100.00;55400.94;5002737;28;20617;-71
2022/04/11 06:30:45;;;;;;;1999.90;999.90;;;;;;;-151.59;100.00;55400.94;4977305;28;20241;-71
2022/04/11 06:33:13;;;;;;;1999.90;999.90;;;;;;;-151.59;100.00;55400.94;4984259;28;20744;-73
2022/04/11 06:35:41;;;;;;;1999.90;999.90;;;;;;;-151.59;100.00;55400.94;4998752;28;20245;-72
2022/04/11 06:38:11;;;;;;;1999.90;999.90;;;;;;;-151.59;100.00;55400.94;4983943;28;20235;-72
2022/04/11 06:40:40;;;;;;;1999.90;999.90;;;;;;;-151.59;100.00;55400.94;4986672;28;20330;-73
2022/04/11 06:43:08;;;;;;;1999.90;999.90;;;;;;;-151.59;100.00;55400.94;4995968;28;20236;-72
2022/04/11 06:45:56;;;;;;;1999.90;999.90;;;;;;;-151.59;100.00;55400.94;4998600;28;20238;-71
2022/04/11 06:48:25;;;;;;;1999.90;999.90;;;;;;;-151.59;100.00;55400.94;5003313;28;20226;-73
2022/04/11 06:50:53;;;;;;;1999.90;999.90;;;;;;;-151.59;100.00;55400.94;4979948;28;20258;-74
2022/04/11 06:53:23;;;;;;;1999.90;999.90;;;;;;;-151.59;100.00;55400.94;4997299;28;20783;-72
2022/04/11 06:55:51;;;;;;;1999.90;999.90;;;;;;;-151.59;100.00;55400.94;4996019;28;20237;-72
2022/04/11 06:58:23;;;;;;;1999.90;999.90;;;;;;;-151.59;100.00;55400.94;5001010;28;20231;-72
2022/04/11 07:00:50;;;;;;;1999.90;999.90;;;;;;;-151.59;100.00;55400.94;4996648;28;21108;-71
2022/04/11 07:03:18;;;;;;;1999.90;999.90;;;;;;;-151.59;100.00;55400.94;5003139;28;20234;-71
2022/04/11 07:05:46;;;;;;;1999.90;999.90;;;;;;;-151.59;100.00;55400.94;4995480;28;20291;-73
2022/04/11 07:08:14;;;;;;;1999.90;999.90;;;;;;;-151.59;100.00;55400.94;4998482;28;20234;-71
2022/04/11 07:10:45;;;;;;;1999.90;999.90;;;;;;;-151.59;100.00;55400.94;5005819;28;20237;-71
2022/04/11 07:13:12;;;;;;;1999.90;999.90;;;;;;;-151.59;100.00;55400.94;4993322;28;20230;-72
2022/04/11 07:15:40;;;;;;;1999.90;999.90;;;;;;;-151.59;100.00;55400.94;5003721;28;21185;-71
2022/04/11 07:18:08;;;;;;;1999.90;999.90;;;;;;;-151.59;100.00;55400.94;4999671;28;20235;-72
2022/04/11 07:20:38;;;;;;;1999.90;999.90;;;;;;;-151.59;100.00;55400.94;5001610;28;20230;-73
2022/04/11 07:23:06;;;;;;;1999.90;999.90;;;;;;;-151.59;100.00;55400.94;5007370;28;20242;-73
2022/04/11 07:25:34;;;;;;;1999.90;999.90;;;;;;;-151.59;100.00;55400.94;4983880;28;20316;-74
2022/04/11 07:28:03;;;;;;;1999.90;999.90;;;;;;;-151.59;100.00;55400.94;4998110;28;20321;-74
2022/04/11 07:30:31;;;;;;;1999.90;999.90;;;;;;;-151.59;100.00;55400.94;5000477;28;20261;-73
2022/04/11 07:32:59;;;;;;;1999.90;999.90;;;;;;;-151.59;100.00;55400.94;4996445;28;20230;-71
2022/04/11 07:35:27;;;;;;;1999.90;999.90;;;;;;;-151.59;100.00;55400.94;5003977;28;20232;-74
2022/04/11 07:37:57;;;;;;;1999.90;999.90;;;;;;;-151.59;100.00;55400.94;5003719;28;20242;-72
2022/04/11 07:40:25;;;;;;;1999.90;999.90;;;;;;;-151.59;100.00;55400.94;5005145;28;20257;-74
2022/04/11 07:42:53;;;;;;;1999.90;999.90;;;;;;;-151.59;100.00;55400.94;5004688;28;20311;-75
2022/04/11 07:45:22;;;;;;;1999.90;999.90;;;;;;;-151.59;100.00;55400.94;5003607;28;20230;-73
2022/04/11 07:47:53;;;;;;;1999.90;999.90;;;;;;;-151.59;100.00;55400.94;5004042;28;20321;-75
2022/04/11 07:50:21;;;;;;;1999.90;999.90;;;;;;;-151.59;100.00;55400.94;5008227;28;20237;-75
2022/04/11 07:52:49;;;;;;;1999.90;999.90;;;;;;;-151.59;100.00;55400.94;5003307;28;20242;-77
2022/04/11 07:55:21;;;;;;;1999.90;999.90;;;;;;;-151.59;100.00;55400.94;5005704;28;20233;-74
2022/04/11 07:57:49;;;;;;;1999.90;999.90;;;;;;;-151.59;100.00;55400.94;4991716;28;20376;-76
2022/04/11 08:00:23;;;;;;;1999.90;999.90;;;;;;;-151.59;100.00;55400.94;5006520;28;20229;-76
2022/04/11 08:02:52;;;;;;;1999.90;999.90;;;;;;;-151.59;100.00;55400.94;5024111;28;21426;-74
2022/04/11 08:05:21;;;;;;;1999.90;999.90;;;;;;;-151.59;100.00;55400.94;5001334;28;20229;-77
2022/04/11 08:07:49;;;;;;;1999.90;999.90;;;;;;;-151.59;100.00;55400.94;5004072;28;20243;-77
2022/04/11 08:10:17;;;;;;;1999.90;999.90;;;;;;;-151.59;100.00;55400.94;5006439;28;22754;-78
2022/04/11 08:12:52;;;;;;;1999.90;999.90;;;;;;;-151.59;100.00;55400.94;5012796;28;20705;-78
2022/04/11 08:15:19;;;;;;;1999.90;999.90;;;;;;;-151.59;100.00;55400.94;5011802;28;20235;-77
2022/04/11 08:17:49;;;;;;;1999.90;999.90;;;;;;;-151.59;100.00;55400.94;5023866;28;20230;-78
2022/04/11 08:20:16;;;;;;;1999.90;999.90;;;;;;;-151.59;100.00;55400.94;5012094;28;20270;-77
2022/04/11 08:22:45;;;;;;;1999.90;999.90;;;;;;;-151.59;100.00;55400.94;5008447;28;20218;-77
2022/04/11 08:25:14;;;;;;;1999.90;999.90;;;;;;;-151.59;100.00;55400.94;5009982;28;20320;-79
2022/04/11 08:27:42;;;;;;;1999.90;999.90;;;;;;;-151.59;100.00;55400.94;5009354;28;20236;-78
2022/04/11 08:30:12;;;;;;;1999.90;999.90;;;;;;;-151.59;100.00;55400.94;5012227;28;20222;-79
2022/04/11 08:32:41;;;;;;;1999.90;999.90;;;;;;;-151.59;100.00;55400.94;5014252;28;20323;-78
2022/04/11 08:35:10;;;;;;;1999.90;999.90;;;;;;;-151.59;100.00;55400.94;5012020;28;20756;-78
2022/04/11 08:37:40;;;;;;;1999.90;999.90;;;;;;;-151.59;100.00;55400.94;5011099;28;20225;-78
2022/04/11 08:40:10;;;;;;;1999.90;999.90;;;;;;;-151.59;100.00;55400.94;5009917;28;20234;-78
2022/04/11 08:42:39;;;;;;;1999.90;999.90;;;;;;;-151.59;100.00;55400.94;4996769;28;20273;-78
2022/04/11 08:45:13;;;;;;;1999.90;999.90;;;;;;;-151.59;100.00;55400.94;5017579;28;20238;-77
2022/04/11 08:47:41;;;;;;;1999.90;999.90;;;;;;;-151.59;100.00;55400.94;5013545;28;20226;-78
2022/04/11 08:50:11;;;;;;;1999.90;999.90;;;;;;;-151.59;100.00;55400.94;5014226;28;20230;-77
2022/04/11 08:52:40;;;;;;;1999.90;999.90;;;;;;;-151.59;100.00;55400.94;5013341;28;20272;-79
2022/04/11 08:55:09;;;;;;;1999.90;999.90;;;;;;;-151.59;100.00;55400.94;5011540;28;20236;-77
2022/04/11 08:57:37;;;;;;;1999.90;999.90;;;;;;;-151.59;100.00;55400.94;5011619;28;20233;-77
2022/04/11 09:00:06;;;;;;;1999.90;999.90;;;;;;;-151.59;100.00;55400.94;5015432;28;20259;-78
2022/04/11 09:02:35;;;;;;;1999.90;999.90;;;;;;;-151.59;100.00;55400.94;5028344;28;20292;-78
2022/04/11 09:05:04;;;;;;;1999.90;999.90;;;;;;;-151.59;100.00;55400.94;5009545;28;20313;-78
2022/04/11 09:07:46;;;;;;;1999.90;999.90;;;;;;;-151.59;100.00;55400.94;5006783;28;20289;-77
2022/04/11 09:10:18;;;;;;;1999.90;999.90;;;;;;;-151.59;100.00;55400.94;5014040;28;20288;-77
2022/04/11 09:12:48;;;;;;;1999.90;999.90;;;;;;;-151.59;100.00;55400.94;4994316;28;20234;-77
2022/04/11 09:15:16;;;;;;;1999.90;999.90;;;;;;;-151.59;100.00;55400.94;5007490;28;20234;-77
2022/04/11 09:17:44;;;;;;;1999.90;999.90;;;;;;;-151.59;100.00;55400.94;5010506;28;20238;-77
2022/04/11 09:20:13;;;;;;;1999.90;999.90;;;;;;;-151.59;100.00;55400.94;5006857;28;20234;-77
2022/04/11 09:22:42;;;;;;;1999.90;999.90;;;;;;;-151.59;100.00;55400.94;5007269;28;20672;-78
2022/04/11 09:25:12;;;;;;;1999.90;999.90;;;;;;;-151.59;100.00;55400.94;5013289;28;20229;-78
2022/04/11 09:27:40;;;;;;;1999.90;999.90;;;;;;;-151.59;100.00;55400.94;5004630;28;20284;-77
2022/04/11 09:30:23;;;;;;;1999.90;999.90;;;;;;;-151.59;100.00;55400.94;5008362;28;20234;-77
2022/04/11 09:33:01;;;;;;;1999.90;999.90;;;;;;;-151.59;100.00;55400.94;5011209;28;20244;-77
2022/04/11 09:35:30;;;;;;;1999.90;999.90;;;;;;;-151.59;100.00;55400.94;5009261;28;20221;-77
2022/04/11 09:38:12;;;;;;;1999.90;999.90;;;;;;;-151.59;100.00;55400.94;5010774;28;20229;-77
2022/04/11 09:40:43;;;;;;;1999.90;999.90;;;;;;;-151.59;100.00;55400.94;5009611;28;20237;-77
2022/04/11 09:43:13;;;;;;;1999.90;999.90;;;;;;;-151.59;100.00;55400.94;5013408;28;20308;-77
2022/04/11 09:45:42;;;;;;;1999.90;999.90;;;;;;;-151.59;100.00;55400.94;5007498;28;20329;-77
2022/04/11 09:48:11;;;;;;;1999.90;999.90;;;;;;;-151.59;100.00;55400.94;5009668;28;20253;-77
2022/04/11 09:50:38;;;;;;;1999.90;999.90;;;;;;;-151.59;100.00;55400.94;5016432;28;20234;-77
2022/04/11 09:53:13;;;;;;;1999.90;999.90;;;;;;;-151.59;100.00;55400.94;5009449;28;20327;-77
2022/04/11 09:55:43;;;;;;;1999.90;999.90;;;;;;;-151.59;100.00;55400.94;5008049;28;20277;-77
2022/04/11 09:58:12;;;;;;;1999.90;999.90;;;;;;;-151.59;100.00;55400.94;5008826;28;20249;-79
2022/04/11 10:00:41;;;;;;;1999.90;999.90;;;;;;;-151.59;100.00;55400.94;5010072;28;20230;-76
2022/04/11 10:03:09;;;;;;;1999.90;999.90;;;;;;;-151.59;100.00;55400.94;5011028;28;20238;-77
2022/04/11 10:05:38;;;;;;;1999.90;999.90;;;;;;;-151.59;100.00;55400.94;5013974;28;20233;-77
2022/04/11 10:08:07;;;;;;;1999.90;999.90;;;;;;;-151.59;100.00;55400.94;5012465;28;20230;-77
2022/04/11 10:10:38;;;;;;;1999.90;999.90;;;;;;;-151.59;100.00;55400.94;5013654;28;20233;-77
2022/04/11 10:13:10;;;;;;;1999.90;999.90;;;;;;;-151.59;100.00;55400.94;5010658;28;20242;-77
2022/04/11 10:15:38;;;;;;;1999.90;999.90;;;;;;;-151.59;100.00;55400.94;5015476;28;20301;-77
2022/04/11 10:18:16;;;;;;;1999.90;999.90;;;;;;;;;;5144838;27;20701;-75
2022/04/11 10:20:45;;;;;;;1999.90;999.90;;;;;;;;;;5123673;27;20739;-73
2022/04/11 10:23:34;;;;;;;1999.90;999.90;;;;;;;;;;5139653;27;20259;-74
2022/04/11 10:26:12;;;;;;;1999.90;999.90;;;;;;;;;;5145245;27;20319;-73
2022/04/11 10:28:43;;;;;;;1999.90;999.90;;;;;;;;;;5147282;27;20229;-73
2022/04/11 10:31:11;;;;;;;1999.90;999.90;;;;;;;;;;5131206;27;20590;-73
2022/04/11 10:33:41;;;;;;;1999.90;999.90;;;;;;;;;;5129453;27;20268;-73
2022/04/11 10:36:24;;;;;;;1999.90;999.90;;;;;;;;;;5122189;27;20220;-73
2022/04/11 10:39:06;;;;;;;1999.90;999.90;;;;;;;;;;5145787;27;20225;-73
2022/04/11 10:41:53;;;;;;;1999.90;999.90;;;;;;;;;;5143612;27;20229;-73
2022/04/11 10:44:30;;;;;;;1999.90;999.90;;;;;;;;;;5146279;27;20231;-73
2022/04/11 10:47:21;;;;;;;1999.90;999.90;;;;;;;;;;5131178;27;20315;-74
2022/04/11 10:50:07;;;;;;;1999.90;999.90;;;;;;;;;;5163489;27;20226;-74
2022/04/11 10:52:37;;;;;;;1999.90;999.90;;;;;;;;;;5149937;27;20229;-74
2022/04/11 10:55:05;;;;;;;1999.90;999.90;;;;;;;;;;5147854;27;20255;-74